MGW Airport (Morgantown Muni-Walter L Bill Hart Fld) Information

FAA: MGW - ICAO: KMGW

MGW Airport Location

State West Virginia
County Monongalia
City Morgantown
MGW Airport is 3 miles east of Morgantown, WV.
Latitude 39-38-36.9435N
Longitude 079-55-03.1691W
Elevation 1,243ft

KMGW Airport METARs

METAR KMGW 281353Z VRB04KT 10SM CLR 12/08 A2982 RMK AO2 SLP100 T01220083
Altimeter 29.82"
Temperature 12.2°C (54.0°F)
Wind 0° at 4KT
Clouds Skies are clear.
Visibility 10.0mi
Time observed: 2021-10-28T13:53:00Z

MGW Airport Details

Status Operational
Activation June 1938
Ownership Public
Usage Public
Chart CINCINNATI
ATC on-site Yes
Beacon schedule sunset-sunrise
Beacon color clear green

MGW Airport Contacts

Owner CITY OF MORGANTOWN
Owner address 389 SPRUCE ST, MORGANTOWN, WV 26505
Owner phone 304-284-7405
Manager GEORGE C. BOYLES
Manager address 1 HOSPITAL PLAZA, GRAFTON, WV 26354
Manager phone 304-265-0400

MGW Airport (Morgantown Muni-Walter L Bill Hart Fld) Radio Frequencies

MGW (Airport) Radio Frequencies

UNICOM 122.95
Common traffic advisory frequency (CTAF) 125.1